createdAt,value
2018-01-19T00:01:55.336Z,5.07
2018-01-19T00:04:22.960Z,5.40
2018-01-19T00:06:51.262Z,4.50
2018-01-19T00:09:23.160Z,4.53
2018-01-19T00:11:50.686Z,3.93
2018-01-19T00:14:18.236Z,4.67
2018-01-19T00:16:46.553Z,4.93
2018-01-19T00:19:14.145Z,5.37
2018-01-19T00:21:41.721Z,6.00
2018-01-19T00:24:09.267Z,5.63
2018-01-19T00:26:36.839Z,6.40
2018-01-19T00:29:11.687Z,5.93
2018-01-19T00:31:40.017Z,7.47
2018-01-19T00:34:07.569Z,6.67
2018-01-19T00:36:35.112Z,6.53
2018-01-19T00:39:02.721Z,7.47
2018-01-19T00:41:30.245Z,6.80
2018-01-19T00:43:58.388Z,9.13
2018-01-19T00:46:26.776Z,9.93
2018-01-19T00:48:56.186Z,8.30
2018-01-19T00:51:23.742Z,9.80
2018-01-19T00:53:51.383Z,11.47
2018-01-19T00:56:18.978Z,10.77
2018-01-19T00:58:56.398Z,12.73
2018-01-19T01:01:23.983Z,13.83
2018-01-19T01:03:51.548Z,14.03
2018-01-19T01:06:19.147Z,14.20
2018-01-19T01:08:51.235Z,14.50
2018-01-19T01:11:18.859Z,15.50
2018-01-19T01:13:46.439Z,16.73
2018-01-19T01:16:14.755Z,17.23
2018-01-19T01:18:53.672Z,17.47
2018-01-19T01:21:21.713Z,18.90
2018-01-19T01:23:50.132Z,20.70
2018-01-19T01:26:17.698Z,19.90
2018-01-19T01:28:46.528Z,21.20
2018-01-19T01:31:14.102Z,23.97
2018-01-19T01:33:41.670Z,23.93
2018-01-19T01:36:10.838Z,21.93
2018-01-19T01:38:38.372Z,24.93
2018-01-19T01:41:05.968Z,24.77
2018-01-19T01:43:33.567Z,25.90
2018-01-19T01:46:01.787Z,23.97
2018-01-19T01:48:29.929Z,23.30
2018-01-19T01:50:57.505Z,20.87
2018-01-19T01:53:25.104Z,18.53
2018-01-19T01:55:53.439Z,19.37
2018-01-19T01:58:27.045Z,24.27
2018-01-19T02:00:54.719Z,28.87
2018-01-19T02:03:22.462Z,31.00
2018-01-19T02:05:50.638Z,30.90
2018-01-19T02:08:19.144Z,30.17
2018-01-19T02:10:46.718Z,29.77
2018-01-19T02:13:14.764Z,29.47
2018-01-19T02:15:42.301Z,30.83
2018-01-19T02:18:11.844Z,33.57
2018-01-19T02:20:39.442Z,31.00
2018-01-19T02:23:08.446Z,33.23
2018-01-19T02:25:35.993Z,32.40
2018-01-19T02:28:11.624Z,30.17
2018-01-19T02:30:39.179Z,33.63
2018-01-19T02:33:06.727Z,31.20
2018-01-19T02:35:34.327Z,30.83
2018-01-19T02:38:05.449Z,32.17
2018-01-19T02:40:33.014Z,33.00
2018-01-19T02:43:00.596Z,30.77
2018-01-19T02:45:28.148Z,34.00
2018-01-19T02:47:56.726Z,33.40
2018-01-19T02:50:24.309Z,32.07
2018-01-19T02:52:51.848Z,34.90
2018-01-19T02:55:19.430Z,32.47
2018-01-19T02:57:46.974Z,28.07
2018-01-19T03:00:14.568Z,30.93
2018-01-19T03:02:42.148Z,32.53
2018-01-19T03:05:09.701Z,30.53
2018-01-19T03:07:38.241Z,30.37
2018-01-19T03:10:05.813Z,28.43
2018-01-19T03:12:33.353Z,27.20
2018-01-19T03:15:00.993Z,26.30
2018-01-19T03:17:29.884Z,24.80
2018-01-19T03:19:58.409Z,22.57
2018-01-19T03:22:26.069Z,24.77
2018-01-19T03:24:54.415Z,23.13
2018-01-19T03:27:23.802Z,23.03
2018-01-19T03:29:51.390Z,24.63
2018-01-19T03:32:19.700Z,24.77
2018-01-19T03:34:47.274Z,27.27
2018-01-19T03:37:14.854Z,26.10
2018-01-19T03:39:42.400Z,28.00
2018-01-19T03:42:09.972Z,25.93
2018-01-19T03:44:37.508Z,27.20
2018-01-19T03:47:05.039Z,24.50
2018-01-19T03:49:33.566Z,29.73
2018-01-19T03:52:01.139Z,26.87
2018-01-19T03:54:28.687Z,24.17
2018-01-19T03:56:56.242Z,23.73
2018-01-19T03:59:24.865Z,21.30
2018-01-19T04:01:52.427Z,19.73
2018-01-19T04:04:19.963Z,19.27
2018-01-19T04:06:47.530Z,17.50
2018-01-19T04:09:16.287Z,16.30
2018-01-19T04:11:44.469Z,16.20
2018-01-19T04:14:12.058Z,17.73
2018-01-19T04:16:39.588Z,15.93
2018-01-19T04:19:14.008Z,15.73
2018-01-19T04:21:41.604Z,17.30
2018-01-19T04:24:09.133Z,14.53
2018-01-19T04:26:36.726Z,12.27
2018-01-19T04:29:07.856Z,8.53
2018-01-19T04:31:35.432Z,8.37
2018-01-19T04:34:03.015Z,9.63
2018-01-19T04:36:30.561Z,9.43
2018-01-19T04:38:59.103Z,8.97
2018-01-19T04:41:26.679Z,9.47
2018-01-19T04:43:54.235Z,10.57
2018-01-19T04:46:21.763Z,9.23
2018-01-19T04:49:00.281Z,9.43
2018-01-19T04:51:28.579Z,10.43
2018-01-19T04:53:56.129Z,9.77
2018-01-19T04:56:24.464Z,12.07
2018-01-19T04:58:52.017Z,11.20
2018-01-19T05:01:19.555Z,11.37
2018-01-19T05:03:47.120Z,12.63
2018-01-19T05:06:16.030Z,10.37
2018-01-19T05:08:45.637Z,6.60
2018-01-19T05:11:13.210Z,6.73
2018-01-19T05:13:40.764Z,7.67
2018-01-19T05:16:08.316Z,8.20
2018-01-19T05:18:36.466Z,10.30
2018-01-19T05:21:04.031Z,12.30
2018-01-19T05:23:31.575Z,10.30
2018-01-19T05:25:59.945Z,10.80
2018-01-19T05:28:30.210Z,9.10
2018-01-19T05:30:57.761Z,9.17
2018-01-19T05:33:25.819Z,7.83
2018-01-19T05:35:53.389Z,8.67
2018-01-19T05:38:25.841Z,8.67
2018-01-19T05:40:54.611Z,8.07
2018-01-19T05:43:22.127Z,9.63
2018-01-19T05:45:50.545Z,9.90
2018-01-19T05:48:18.154Z,8.17
2018-01-19T05:50:46.466Z,9.77
2018-01-19T05:53:14.000Z,9.30
2018-01-19T05:55:41.598Z,12.53
2018-01-19T05:58:12.397Z,10.03
2018-01-19T06:00:41.586Z,11.80
2018-01-19T06:03:09.144Z,9.87
2018-01-19T06:05:37.467Z,12.33
2018-01-19T06:08:05.074Z,10.80
2018-01-19T06:10:32.667Z,10.40
2018-01-19T06:13:00.283Z,10.50
2018-01-19T06:15:27.837Z,12.90
2018-01-19T06:17:55.425Z,16.20
2018-01-19T06:20:22.987Z,12.63
2018-01-19T06:22:50.551Z,14.17
2018-01-19T06:25:18.152Z,15.30
2018-01-19T06:27:46.650Z,15.13
2018-01-19T06:30:14.438Z,11.67
2018-01-19T06:32:42.024Z,15.97
2018-01-19T06:35:09.568Z,12.03
2018-01-19T06:37:40.276Z,13.50
2018-01-19T06:40:08.300Z,13.10
2018-01-19T06:42:35.872Z,12.90
2018-01-19T06:45:04.984Z,13.77
2018-01-19T06:47:37.559Z,16.30
2018-01-19T06:50:05.885Z,14.13
2018-01-19T06:52:33.441Z,14.23
2018-01-19T06:55:01.026Z,15.70
2018-01-19T06:57:28.658Z,15.13
2018-01-19T06:59:56.204Z,13.50
2018-01-19T07:02:23.779Z,12.17
2018-01-19T07:04:51.335Z,14.23
2018-01-19T07:07:19.802Z,16.23
2018-01-19T07:09:47.399Z,11.30
2018-01-19T07:12:14.986Z,13.07
2018-01-19T07:14:42.547Z,13.57
2018-01-19T07:17:10.126Z,14.17
2018-01-19T07:19:39.504Z,11.17
2018-01-19T07:22:07.062Z,12.87
2018-01-19T07:24:34.619Z,11.83
2018-01-19T07:27:02.204Z,13.50
2018-01-19T07:29:30.554Z,14.50
2018-01-19T07:31:58.132Z,18.10
2018-01-19T07:34:25.752Z,15.17
2018-01-19T07:36:54.241Z,14.10
2018-01-19T07:39:22.749Z,12.90
2018-01-19T07:41:50.391Z,15.90
2018-01-19T07:44:17.935Z,15.93
2018-01-19T07:46:46.479Z,16.27
2018-01-19T07:49:14.066Z,15.07
2018-01-19T07:51:41.664Z,16.43
2018-01-19T07:54:09.208Z,15.90
2018-01-19T07:56:36.788Z,19.77
2018-01-19T07:59:04.378Z,13.40
2018-01-19T08:01:32.542Z,17.20
2018-01-19T08:04:00.140Z,17.43
2018-01-19T08:06:28.936Z,15.73
2018-01-19T08:08:58.267Z,17.33
2018-01-19T08:11:25.830Z,16.10
2018-01-19T08:13:53.388Z,14.20
2018-01-19T08:16:20.926Z,15.63
2018-01-19T08:18:49.259Z,12.87
2018-01-19T08:21:16.845Z,14.40
2018-01-19T08:23:44.410Z,15.03
2018-01-19T08:26:12.013Z,16.23
2018-01-19T08:28:39.640Z,15.53
2018-01-19T08:31:07.165Z,14.67
2018-01-19T08:33:34.717Z,12.17
2018-01-19T08:36:02.280Z,15.10
2018-01-19T08:38:30.739Z,15.17
2018-01-19T08:40:59.050Z,13.93
2018-01-19T08:43:27.564Z,13.03
2018-01-19T08:45:55.121Z,13.47
2018-01-19T08:48:23.684Z,10.97
2018-01-19T08:50:51.279Z,13.83
2018-01-19T08:53:18.854Z,15.53
2018-01-19T08:55:47.162Z,11.93
2018-01-19T08:58:16.684Z,14.90
2018-01-19T09:00:44.247Z,13.53
2018-01-19T09:03:11.814Z,12.97
2018-01-19T09:05:39.381Z,13.40
2018-01-19T09:08:09.902Z,16.83
2018-01-19T09:10:37.479Z,13.93
2018-01-19T09:13:06.165Z,13.03
2018-01-19T09:15:33.720Z,12.90
2018-01-19T09:18:08.332Z,15.03
2018-01-19T09:20:35.899Z,13.07
2018-01-19T09:23:03.446Z,12.87
2018-01-19T09:25:31.037Z,12.77
2018-01-19T09:27:59.334Z,12.37
2018-01-19T09:30:26.885Z,11.57
2018-01-19T09:32:54.460Z,18.37
2018-01-19T09:35:22.012Z,14.40
2018-01-19T09:37:49.949Z,15.53
2018-01-19T09:40:17.531Z,19.43
2018-01-19T09:42:45.089Z,19.37
2018-01-19T09:45:12.658Z,17.33
2018-01-19T09:47:55.411Z,18.67
2018-01-19T09:50:22.957Z,13.63
2018-01-19T09:52:51.207Z,23.27
2018-01-19T09:55:18.843Z,18.27
2018-01-19T09:57:48.585Z,19.23
2018-01-19T10:00:16.095Z,15.90
2018-01-19T10:02:44.437Z,24.77
2018-01-19T10:05:13.543Z,17.57
2018-01-19T10:07:41.082Z,16.00
2018-01-19T10:10:09.487Z,19.03
2018-01-19T10:12:37.024Z,17.00
2018-01-19T10:15:04.578Z,16.47
2018-01-19T10:17:33.076Z,17.80
2018-01-19T10:20:00.634Z,16.30
2018-01-19T10:22:28.176Z,18.00
2018-01-19T10:24:55.759Z,19.83
2018-01-19T10:27:23.342Z,16.67
2018-01-19T10:29:50.875Z,18.53
2018-01-19T10:32:18.475Z,20.10
2018-01-19T10:34:46.044Z,17.03
2018-01-19T10:37:14.469Z,18.00
2018-01-19T10:39:50.473Z,23.67
2018-01-19T10:42:18.030Z,18.93
2018-01-19T10:44:45.593Z,19.47
2018-01-19T10:47:13.987Z,16.07
2018-01-19T10:49:43.709Z,16.93
2018-01-19T10:52:12.044Z,19.10
2018-01-19T10:54:40.330Z,16.00
2018-01-19T10:57:07.882Z,18.97
2018-01-19T10:59:36.488Z,20.80
2018-01-19T11:02:04.026Z,20.73
2018-01-19T11:04:31.616Z,22.10
2018-01-19T11:06:59.192Z,20.03
2018-01-19T11:09:30.506Z,20.40
2018-01-19T11:11:58.087Z,18.73
2018-01-19T11:14:27.596Z,17.93
2018-01-19T11:16:55.134Z,15.30
2018-01-19T11:19:22.717Z,18.67
2018-01-19T11:21:50.279Z,15.97
2018-01-19T11:24:17.835Z,17.93
2018-01-19T11:26:45.376Z,18.73
2018-01-19T11:29:16.293Z,14.80
2018-01-19T11:31:43.846Z,17.93
2018-01-19T11:34:12.224Z,17.47
2018-01-19T11:36:40.576Z,14.83
2018-01-19T11:39:11.880Z,17.50
2018-01-19T11:41:39.468Z,16.33
2018-01-19T11:44:07.028Z,18.33
2018-01-19T11:46:34.582Z,16.13
2018-01-19T11:49:04.160Z,18.07
2018-01-19T11:51:31.707Z,17.10
2018-01-19T11:54:00.122Z,20.30
2018-01-19T11:56:27.780Z,19.07
2018-01-19T11:58:56.407Z,20.93
2018-01-19T12:01:23.965Z,14.80
2018-01-19T12:03:51.551Z,15.87
2018-01-19T12:06:19.113Z,19.00
2018-01-19T12:08:57.492Z,19.23
2018-01-19T12:11:25.080Z,15.50
2018-01-19T12:13:52.624Z,13.57
2018-01-19T12:16:20.191Z,15.60
2018-01-19T12:18:48.685Z,13.63
2018-01-19T12:21:16.233Z,15.10
2018-01-19T12:23:43.790Z,18.43
2018-01-19T12:26:11.347Z,12.70
2018-01-19T12:28:38.940Z,16.23
2018-01-19T12:31:06.518Z,13.13
2018-01-19T12:33:34.920Z,16.13
2018-01-19T12:36:02.522Z,15.53
2018-01-19T12:38:31.053Z,16.27
2018-01-19T12:40:59.403Z,12.17
2018-01-19T12:43:28.177Z,17.37
2018-01-19T12:45:55.744Z,12.57
2018-01-19T12:48:23.353Z,13.33
2018-01-19T12:50:52.387Z,12.70
2018-01-19T12:53:20.057Z,12.87
2018-01-19T12:55:47.693Z,11.50
2018-01-19T12:58:15.267Z,12.53
2018-01-19T13:00:42.873Z,13.63
2018-01-19T13:03:10.474Z,18.57
2018-01-19T13:05:38.026Z,12.20
2018-01-19T13:08:05.618Z,13.80
2018-01-19T13:10:33.174Z,11.73
2018-01-19T13:13:03.198Z,20.57
2018-01-19T13:15:30.746Z,13.17
2018-01-19T13:17:58.320Z,11.33
2018-01-19T13:20:25.909Z,14.57
2018-01-19T13:22:53.442Z,14.13
2018-01-19T13:25:21.026Z,16.67
2018-01-19T13:27:50.048Z,12.37
2018-01-19T13:30:17.743Z,16.70
2018-01-19T13:32:45.373Z,13.00
2018-01-19T13:35:13.003Z,18.17
2018-01-19T13:38:01.258Z,15.87
2018-01-19T13:40:28.833Z,8.27
2018-01-19T13:42:56.383Z,10.40
2018-01-19T13:45:23.948Z,13.73
2018-01-19T13:47:54.579Z,13.17
2018-01-19T13:50:22.949Z,14.83
2018-01-19T13:52:50.501Z,11.60
2018-01-19T13:55:18.858Z,13.30
2018-01-19T13:57:46.548Z,11.20
2018-01-19T14:00:14.130Z,11.70
2018-01-19T14:02:41.740Z,10.87
2018-01-19T14:05:09.333Z,11.37
2018-01-19T14:10:32.370Z,13.20
2018-01-19T14:13:00.753Z,13.90
2018-01-19T14:15:28.333Z,16.53
2018-01-19T14:18:16.674Z,14.67
2018-01-19T14:20:44.539Z,11.97
2018-01-19T14:23:12.123Z,12.30
2018-01-19T14:25:39.770Z,13.33
2018-01-19T14:28:07.409Z,6.67
2018-01-19T14:30:35.785Z,6.23
2018-01-19T14:33:03.416Z,13.33
2018-01-19T14:35:30.999Z,10.63
2018-01-19T14:38:00.634Z,7.87
2018-01-19T14:40:28.246Z,7.43
2018-01-19T14:42:55.831Z,21.80
2018-01-19T14:45:23.406Z,22.33
2018-01-19T14:47:51.020Z,14.03
2018-01-19T14:50:18.616Z,8.97
2018-01-19T14:52:46.256Z,8.20
2018-01-19T14:55:14.058Z,21.83
2018-01-19T14:57:41.640Z,27.67
2018-01-19T15:00:09.979Z,9.50
2018-01-19T15:02:37.652Z,8.30
2018-01-19T15:05:05.215Z,5.50
2018-01-19T15:07:32.757Z,5.83
2018-01-19T15:10:00.355Z,6.23
2018-01-19T15:12:27.958Z,4.67
2018-01-19T15:14:57.067Z,6.80
2018-01-19T15:17:24.641Z,6.07
2018-01-19T15:19:52.925Z,7.83
2018-01-19T15:22:20.480Z,8.27
2018-01-19T15:24:48.064Z,6.70
2018-01-19T15:27:15.656Z,6.90
2018-01-19T15:29:45.509Z,8.63
2018-01-19T15:32:13.151Z,5.77
2018-01-19T15:34:40.724Z,9.47
2018-01-19T15:37:12.583Z,11.97
2018-01-19T15:40:06.816Z,11.40
2018-01-19T18:35:12.817Z,17.00
2018-01-19T18:37:54.818Z,18.27
2018-01-19T18:40:28.277Z,17.90
2018-01-19T18:48:26.361Z,19.17
2018-01-19T18:58:48.694Z,19.10
2018-01-19T19:01:22.837Z,18.20
2018-01-19T19:03:54.160Z,19.30
2018-01-19T19:06:26.364Z,18.67
2018-01-19T19:14:09.355Z,24.40
2018-01-19T19:16:39.727Z,19.67
2018-01-19T19:19:11.749Z,17.80
2018-01-19T19:21:45.362Z,15.40
2018-01-19T19:24:17.301Z,16.20
2018-01-19T19:32:19.225Z,21.93
2018-01-19T19:37:26.840Z,21.57
2018-01-19T19:39:57.804Z,37.53
2018-01-19T19:42:30.898Z,51.70
2018-01-19T19:45:00.766Z,49.00
2018-01-19T19:47:29.738Z,80.93
2018-01-19T19:49:59.932Z,25.30
2018-01-19T19:52:32.214Z,44.27
2018-01-19T19:55:09.781Z,30.77
2018-01-19T19:57:38.895Z,23.03
2018-01-19T20:00:07.668Z,37.20
2018-01-19T20:02:36.634Z,20.33
2018-01-19T20:05:05.786Z,30.57
2018-01-19T20:07:46.694Z,35.93
2018-01-19T20:10:16.777Z,24.30
2018-01-19T20:12:46.815Z,45.90
2018-01-19T20:15:15.828Z,30.97
2018-01-19T20:17:44.359Z,22.73
2018-01-19T20:20:12.736Z,40.67
2018-01-19T20:22:41.341Z,38.90
2018-01-19T20:25:09.661Z,24.57
2018-01-19T20:27:37.859Z,25.53
2018-01-19T20:30:06.206Z,20.70
2018-01-19T20:32:34.346Z,23.53
2018-01-19T20:35:04.439Z,23.43
2018-01-19T20:37:37.232Z,23.43
2018-01-19T20:40:05.898Z,21.63
2018-01-19T20:42:34.260Z,22.03
2018-01-19T20:45:04.524Z,22.87
2018-01-19T20:47:37.846Z,22.20
2018-01-19T20:50:06.273Z,23.30
2018-01-19T20:52:34.951Z,25.57
2018-01-19T20:55:04.335Z,28.93
2018-01-19T20:57:32.894Z,25.17
2018-01-19T21:00:01.497Z,25.83
2018-01-19T21:02:31.225Z,25.23
2018-01-19T21:05:00.958Z,21.67
2018-01-19T21:07:46.580Z,20.53
2018-01-19T21:10:15.068Z,18.83
2018-01-19T21:15:18.116Z,16.27
2018-01-19T21:17:48.398Z,17.63
2018-01-19T21:23:01.462Z,11.83
2018-01-19T21:25:29.910Z,14.87
2018-01-19T21:27:59.022Z,13.77
2018-01-19T21:30:29.749Z,16.60
2018-01-19T21:32:59.182Z,13.60
2018-01-19T21:35:28.377Z,15.20
2018-01-19T21:38:01.990Z,15.90
2018-01-19T21:40:29.817Z,15.00
2018-01-19T21:42:57.513Z,14.47
2018-01-19T21:45:25.447Z,11.87
2018-01-19T21:47:58.210Z,15.07
2018-01-19T21:50:25.988Z,14.93
2018-01-19T21:52:53.753Z,15.07
2018-01-19T21:55:21.628Z,14.33
2018-01-19T21:57:49.356Z,14.47
2018-01-19T22:00:17.086Z,13.47
2018-01-19T22:02:45.020Z,13.00
2018-01-19T22:05:12.846Z,13.27
2018-01-19T22:07:40.594Z,16.07
2018-01-19T22:10:08.198Z,17.67
2018-01-19T22:12:36.697Z,13.43
2018-01-19T22:15:06.079Z,15.97
2018-01-19T22:17:33.854Z,13.77
2018-01-19T22:20:02.407Z,15.50
2018-01-19T22:22:32.909Z,15.53
2018-01-19T22:25:00.807Z,15.73
2018-01-19T22:27:29.320Z,12.77
2018-01-19T22:29:57.765Z,14.93
2018-01-19T22:32:26.933Z,15.17
2018-01-19T22:34:54.715Z,14.67
2018-01-19T22:37:22.440Z,15.37
2018-01-19T22:39:50.227Z,17.97
2018-01-19T22:42:17.934Z,15.43
2018-01-19T22:44:45.788Z,13.87
2018-01-19T22:47:13.518Z,13.90
2018-01-19T22:49:41.216Z,13.30
2018-01-19T22:52:08.872Z,16.90
2018-01-19T22:54:37.446Z,16.07
2018-01-19T22:57:05.190Z,15.13
2018-01-19T22:59:33.983Z,13.60
2018-01-19T23:02:03.447Z,18.30
2018-01-19T23:04:33.194Z,16.77
2018-01-19T23:07:00.945Z,21.40
2018-01-19T23:09:28.769Z,17.57
2018-01-19T23:11:56.581Z,15.67
2018-01-19T23:14:24.448Z,13.40
2018-01-19T23:16:52.181Z,18.40
2018-01-19T23:19:20.704Z,17.03
2018-01-19T23:21:49.095Z,16.53
2018-01-19T23:24:29.865Z,18.27
2018-01-19T23:26:57.588Z,15.70
2018-01-19T23:29:26.306Z,16.23
2018-01-19T23:31:54.216Z,12.20
2018-01-19T23:34:26.892Z,17.30
2018-01-19T23:36:54.706Z,15.43
2018-01-19T23:39:26.078Z,13.13
2018-01-19T23:41:55.386Z,16.90
2018-01-19T23:44:23.065Z,15.80
2018-01-19T23:46:50.771Z,15.33
2018-01-19T23:49:20.645Z,16.77
2018-01-19T23:51:48.372Z,14.40
2018-01-19T23:54:18.868Z,15.33
2018-01-19T23:56:48.353Z,16.13
2018-01-19T23:59:17.169Z,14.83
